Time;durP1;ratioP1;P1;durP2;ratioP2;P2;SDS_P1;SDS_P2;PMS_P1;PMS_P2;Temp;Humidity;BMP_temperature;BMP_pressure;BME280_temperature;BME280_humidity;BME280_pressure;Samples;Min_cycle;Max_cycle;Signal;HPM_P1;HPM_P2
2020/12/13 00:01:20;;;;;;;33.27;27.00;;;5.00;99.90;;;;;;6181239;28;20477;-65
2020/12/13 00:04:23;;;;;;;37.80;26.90;;;5.00;99.90;;;;;;6200095;28;20485;-64
2020/12/13 00:07:26;;;;;;;37.07;24.67;;;5.00;99.90;;;;;;6200410;28;20811;-65
2020/12/13 00:10:28;;;;;;;38.20;26.20;;;5.00;99.90;;;;;;6200548;28;20480;-61
2020/12/13 00:13:31;;;;;;;38.43;27.10;;;5.10;99.90;;;;;;6202922;28;20477;-62
2020/12/13 00:16:34;;;;;;;35.90;26.60;;;5.10;99.90;;;;;;6204933;28;20837;-66
2020/12/13 00:19:36;;;;;;;36.70;25.63;;;5.10;99.90;;;;;;6204353;28;20473;-62
2020/12/13 00:22:39;;;;;;;37.20;27.40;;;5.20;99.90;;;;;;6204693;28;20819;-65
2020/12/13 00:25:42;;;;;;;48.90;31.43;;;5.20;99.90;;;;;;6204728;28;20484;-63
2020/12/13 00:28:44;;;;;;;40.40;29.50;;;5.20;99.90;;;;;;6204553;28;20468;-62
2020/12/13 00:31:48;;;;;;;35.70;25.73;;;5.20;99.90;;;;;;6205105;28;20483;-62
2020/12/13 00:34:51;;;;;;;35.10;25.40;;;5.20;99.90;;;;;;6204490;28;20472;-62
2020/12/13 00:37:54;;;;;;;39.17;27.73;;;5.20;99.90;;;;;;6204499;28;20479;-59
2020/12/13 00:40:56;;;;;;;37.13;25.33;;;5.20;99.90;;;;;;6204505;28;20478;-59
2020/12/13 00:43:59;;;;;;;32.50;25.30;;;5.20;99.90;;;;;;6204307;28;20480;-62
2020/12/13 00:47:02;;;;;;;32.47;25.63;;;5.20;99.90;;;;;;6204448;28;20551;-62
2020/12/13 00:50:05;;;;;;;38.87;26.40;;;5.20;99.90;;;;;;6204152;28;20491;-63
2020/12/13 00:53:08;;;;;;;35.90;26.00;;;5.20;99.90;;;;;;6204297;28;20491;-61
2020/12/13 00:56:14;;;;;;;37.57;26.80;;;5.20;99.90;;;;;;6204255;28;20492;-64
2020/12/13 00:59:16;;;;;;;33.80;25.07;;;5.20;99.90;;;;;;6204121;28;20483;-63
2020/12/13 01:02:18;;;;;;;37.10;24.90;;;5.20;99.90;;;;;;6203537;28;20491;-63
2020/12/13 01:05:20;;;;;;;31.50;20.93;;;5.30;99.90;;;;;;6203701;28;20562;-63
2020/12/13 01:08:23;;;;;;;29.40;21.70;;;5.30;99.90;;;;;;6194984;28;20469;-64
2020/12/13 01:11:27;;;;;;;31.73;22.87;;;5.20;99.90;;;;;;6203675;28;20482;-62
2020/12/13 01:14:29;;;;;;;34.10;22.73;;;5.30;99.90;;;;;;6203354;28;20846;-62
2020/12/13 01:17:33;;;;;;;28.30;22.30;;;5.20;99.90;;;;;;6203752;28;20937;-63
2020/12/13 01:20:36;;;;;;;32.30;22.40;;;5.30;99.90;;;;;;6203571;28;21027;-63
2020/12/13 01:23:39;;;;;;;34.83;25.50;;;5.30;99.90;;;;;;6203705;28;20491;-63
2020/12/13 01:26:44;;;;;;;31.50;21.27;;;5.30;99.90;;;;;;6202656;28;21015;-63
2020/12/13 01:29:47;;;;;;;29.83;20.87;;;5.40;99.90;;;;;;6203303;28;20481;-62
2020/12/13 01:32:49;;;;;;;31.00;21.60;;;5.40;99.90;;;;;;6203260;28;20965;-62
2020/12/13 01:35:51;;;;;;;28.57;20.40;;;5.40;99.90;;;;;;6202188;28;20465;-62
2020/12/13 01:38:54;;;;;;;26.30;19.30;;;5.50;99.90;;;;;;6200665;28;20488;-61
2020/12/13 01:41:57;;;;;;;27.37;18.87;;;5.30;99.90;;;;;;6203459;28;20479;-62
2020/12/13 01:45:00;;;;;;;24.90;18.57;;;5.30;99.90;;;;;;6225063;28;20480;-62
2020/12/13 01:48:03;;;;;;;22.30;17.17;;;5.20;99.90;;;;;;6225082;28;20472;-62
2020/12/13 01:51:13;;;;;;;25.40;20.00;;;5.20;99.90;;;;;;6225934;28;20535;-62
2020/12/13 01:54:17;;;;;;;21.77;15.77;;;5.20;99.90;;;;;;6226803;28;20534;-63
2020/12/13 01:57:21;;;;;;;22.70;17.40;;;5.20;99.90;;;;;;6226965;28;20778;-62
2020/12/13 02:00:24;;;;;;;24.73;16.77;;;5.20;99.90;;;;;;6227455;28;20464;-62
2020/12/13 02:03:33;;;;;;;22.17;17.07;;;5.10;99.90;;;;;;6226758;28;20455;-61
2020/12/13 02:06:37;;;;;;;26.30;17.23;;;5.10;99.90;;;;;;6227010;28;20464;-61
2020/12/13 02:09:41;;;;;;;21.80;15.50;;;4.90;99.90;;;;;;6221711;28;20916;-62
2020/12/13 02:12:43;;;;;;;22.80;17.40;;;4.90;99.90;;;;;;6226988;28;20915;-62
2020/12/13 02:15:48;;;;;;;26.10;18.50;;;4.80;99.90;;;;;;6226949;28;20468;-62
2020/12/13 02:18:50;;;;;;;32.07;19.40;;;4.80;99.90;;;;;;6226802;28;20476;-62
2020/12/13 02:21:52;;;;;;;22.80;17.37;;;4.80;99.90;;;;;;6226558;28;20472;-62
2020/12/13 02:25:08;;;;;;;21.77;15.73;;;4.80;99.90;;;;;;6226443;28;20986;-62
2020/12/13 02:28:11;;;;;;;20.70;15.60;;;4.70;99.90;;;;;;6227005;28;20473;-62
2020/12/13 02:31:13;;;;;;;22.03;16.93;;;4.70;99.90;;;;;;6226499;28;21000;-62
2020/12/13 02:34:15;;;;;;;21.10;15.07;;;4.60;99.90;;;;;;6226118;28;20815;-63
2020/12/13 02:37:17;;;;;;;21.33;16.30;;;4.50;99.90;;;;;;6225176;28;20986;-60
2020/12/13 02:40:21;;;;;;;21.03;15.07;;;4.50;99.90;;;;;;6226315;28;20484;-62
2020/12/13 02:43:23;;;;;;;20.13;14.73;;;4.40;99.90;;;;;;6226504;28;20467;-62
2020/12/13 02:46:27;;;;;;;23.83;16.40;;;4.40;99.90;;;;;;6226101;28;20485;-62
2020/12/13 02:49:29;;;;;;;22.47;17.13;;;4.40;99.90;;;;;;6225680;28;20816;-62
2020/12/13 02:52:32;;;;;;;19.00;15.03;;;4.30;99.90;;;;;;6226079;28;21006;-62
2020/12/13 02:55:35;;;;;;;22.40;15.17;;;4.20;99.90;;;;;;6226225;28;20484;-62
2020/12/13 02:58:37;;;;;;;19.70;16.00;;;4.20;99.90;;;;;;6225999;28;20501;-62
2020/12/13 03:01:39;;;;;;;22.83;15.97;;;4.10;99.90;;;;;;6225774;28;20566;-62
2020/12/13 03:04:41;;;;;;;20.07;15.50;;;4.20;99.90;;;;;;6225247;28;20867;-62
2020/12/13 03:07:46;;;;;;;20.50;16.10;;;4.10;99.90;;;;;;6225834;28;20479;-62
2020/12/13 03:10:49;;;;;;;20.70;16.53;;;4.10;99.90;;;;;;6225659;28;20482;-61
2020/12/13 03:13:52;;;;;;;19.83;16.07;;;4.00;99.90;;;;;;6221063;28;20471;-61
2020/12/13 03:16:54;;;;;;;21.97;17.27;;;4.00;99.90;;;;;;6225491;28;20484;-61
2020/12/13 03:19:56;;;;;;;24.00;17.17;;;4.00;99.90;;;;;;6225368;28;20960;-62
2020/12/13 03:22:58;;;;;;;18.23;14.90;;;4.00;99.90;;;;;;6225362;28;20476;-61
2020/12/13 03:26:01;;;;;;;23.27;16.00;;;4.00;99.90;;;;;;6225462;28;20468;-61
2020/12/13 03:29:04;;;;;;;22.77;16.47;;;3.90;99.90;;;;;;6225486;28;20476;-61
2020/12/13 03:32:06;;;;;;;20.30;16.33;;;3.90;99.90;;;;;;6225216;28;20990;-62
2020/12/13 03:35:08;;;;;;;22.60;17.30;;;3.90;99.90;;;;;;6225205;28;20562;-61
2020/12/13 03:38:11;;;;;;;21.47;16.30;;;3.80;99.90;;;;;;6225273;28;20801;-62
2020/12/13 03:41:14;;;;;;;24.00;17.10;;;3.90;99.90;;;;;;6225226;28;20484;-61
2020/12/13 03:44:17;;;;;;;24.80;17.83;;;3.90;99.90;;;;;;6225172;28;20595;-61
2020/12/13 03:47:20;;;;;;;24.60;16.27;;;3.80;99.90;;;;;;6225603;28;20813;-61
2020/12/13 03:50:23;;;;;;;24.50;17.90;;;3.80;99.90;;;;;;6229800;28;20843;-61
2020/12/13 03:53:25;;;;;;;29.57;17.30;;;3.80;99.90;;;;;;6229939;28;20987;-61
2020/12/13 03:56:29;;;;;;;26.20;17.03;;;3.80;99.90;;;;;;6229909;28;20516;-60
2020/12/13 03:59:31;;;;;;;27.70;17.07;;;3.70;99.90;;;;;;6229990;28;20492;-60
2020/12/13 04:02:33;;;;;;;27.13;16.80;;;3.70;99.90;;;;;;6229814;28;20482;-61
2020/12/13 04:05:35;;;;;;;25.83;16.67;;;3.70;99.90;;;;;;6229568;28;20476;-61
2020/12/13 04:08:38;;;;;;;23.73;16.77;;;3.70;99.90;;;;;;6229466;28;20967;-61
2020/12/13 04:11:41;;;;;;;24.10;16.57;;;3.70;99.90;;;;;;6229346;28;20475;-61
2020/12/13 04:14:43;;;;;;;22.70;16.53;;;3.70;99.90;;;;;;6229122;28;20979;-61
2020/12/13 04:17:45;;;;;;;25.53;16.27;;;3.70;99.90;;;;;;6229383;28;20478;-61
2020/12/13 04:20:47;;;;;;;25.47;16.43;;;3.60;99.90;;;;;;6229086;28;20476;-61
2020/12/13 04:23:49;;;;;;;19.20;14.90;;;3.60;99.90;;;;;;6229248;28;20476;-61
2020/12/13 04:26:52;;;;;;;23.93;16.93;;;3.60;99.90;;;;;;6229112;28;20491;-61
2020/12/13 04:29:54;;;;;;;26.90;18.00;;;3.50;99.90;;;;;;6228989;28;20468;-61
2020/12/13 04:32:57;;;;;;;21.70;16.13;;;3.40;99.90;;;;;;6228949;28;20503;-61
2020/12/13 04:35:59;;;;;;;26.60;17.77;;;3.30;99.90;;;;;;6228765;28;20486;-61
2020/12/13 04:39:01;;;;;;;25.53;16.97;;;3.30;99.90;;;;;;6228855;28;20480;-61
2020/12/13 04:42:05;;;;;;;24.63;16.70;;;3.20;99.90;;;;;;6228638;28;20972;-62
2020/12/13 04:45:09;;;;;;;24.63;17.30;;;3.20;99.90;;;;;;6228773;28;20498;-62
2020/12/13 04:48:11;;;;;;;22.83;15.50;;;3.20;99.90;;;;;;6228606;28;20479;-62
2020/12/13 04:51:19;;;;;;;23.40;16.20;;;3.20;99.90;;;;;;6228958;28;20460;-62
2020/12/13 04:54:23;;;;;;;22.47;17.37;;;3.20;99.90;;;;;;6228838;28;20451;-62
2020/12/13 04:57:26;;;;;;;23.77;17.80;;;3.10;99.90;;;;;;6228746;28;20440;-62
2020/12/13 05:00:30;;;;;;;37.90;22.80;;;3.10;99.90;;;;;;6227494;28;20468;-62
2020/12/13 05:03:34;;;;;;;43.63;22.47;;;3.10;99.90;;;;;;6228240;28;20444;-62
2020/12/13 05:06:37;;;;;;;29.43;19.67;;;3.00;99.90;;;;;;6228436;28;20479;-61
2020/12/13 05:09:40;;;;;;;36.27;22.27;;;2.90;99.90;;;;;;6228263;28;20456;-62
2020/12/13 05:12:43;;;;;;;38.10;21.67;;;2.90;99.90;;;;;;6228090;28;20472;-62
2020/12/13 05:15:46;;;;;;;70.30;25.13;;;2.90;99.90;;;;;;6228223;28;20468;-61
2020/12/13 05:18:48;;;;;;;40.23;24.60;;;2.80;99.90;;;;;;6227900;28;20865;-61
2020/12/13 05:21:51;;;;;;;38.43;22.80;;;2.90;99.90;;;;;;6218356;28;20468;-61
2020/12/13 05:24:53;;;;;;;40.77;23.40;;;2.90;99.90;;;;;;6227948;28;20480;-62
2020/12/13 05:28:00;;;;;;;37.50;21.97;;;3.00;99.90;;;;;;6228034;28;20464;-62
2020/12/13 05:31:05;;;;;;;48.43;23.73;;;3.10;99.90;;;;;;6228440;28;20477;-62
2020/12/13 05:34:16;;;;;;;35.70;23.67;;;2.90;99.90;;;;;;6227801;28;20468;-62
2020/12/13 05:37:19;;;;;;;34.87;20.20;;;3.00;99.90;;;;;;6227876;28;20468;-62
2020/12/13 05:40:22;;;;;;;41.47;21.70;;;3.00;99.90;;;;;;6227591;28;20484;-62
2020/12/13 05:43:28;;;;;;;36.63;20.30;;;3.00;99.90;;;;;;6227629;28;20475;-61
2020/12/13 05:46:50;;;;;;;35.07;22.17;;;3.00;99.90;;;;;;6227645;28;20920;-62
2020/12/13 05:50:11;;;;;;;40.50;21.67;;;3.10;99.90;;;;;;6227378;28;20472;-62
2020/12/13 05:53:14;;;;;;;47.27;21.87;;;3.10;99.90;;;;;;6227249;28;21010;-62
2020/12/13 05:56:22;;;;;;;36.70;20.33;;;3.20;99.90;;;;;;6227316;28;20468;-61
2020/12/13 05:59:27;;;;;;;37.83;20.63;;;3.10;99.90;;;;;;6226959;28;20998;-62
2020/12/13 06:02:30;;;;;;;33.53;20.50;;;3.10;99.90;;;;;;6226862;28;20972;-61
2020/12/13 06:05:36;;;;;;;45.00;20.63;;;3.10;99.90;;;;;;6226905;28;20490;-62
2020/12/13 06:09:05;;;;;;;37.90;21.60;;;3.00;99.90;;;;;;6227009;28;20464;-62
2020/12/13 06:12:09;;;;;;;35.27;21.23;;;3.10;99.90;;;;;;6226654;28;20499;-62
2020/12/13 06:15:14;;;;;;;29.90;20.13;;;3.00;99.90;;;;;;6226616;28;20475;-62
2020/12/13 06:18:16;;;;;;;35.50;20.57;;;3.10;99.90;;;;;;6226200;28;20776;-62
2020/12/13 06:21:19;;;;;;;33.17;21.70;;;3.10;99.90;;;;;;6226370;28;20468;-62
2020/12/13 06:24:22;;;;;;;38.93;20.80;;;3.10;99.90;;;;;;6222095;28;20444;-62
2020/12/13 06:27:25;;;;;;;37.20;21.33;;;3.10;99.90;;;;;;6226179;28;20483;-62
2020/12/13 06:30:29;;;;;;;32.17;19.10;;;3.20;99.90;;;;;;6226599;28;20487;-62
2020/12/13 06:33:40;;;;;;;37.63;21.03;;;3.20;99.90;;;;;;6226031;28;20782;-62
2020/12/13 06:36:43;;;;;;;30.63;19.37;;;3.30;99.90;;;;;;6226591;28;20472;-62
2020/12/13 06:39:45;;;;;;;34.33;19.00;;;3.30;99.90;;;;;;6226311;28;20468;-62
2020/12/13 06:42:49;;;;;;;33.80;18.37;;;3.40;99.90;;;;;;6226238;28;20468;-61
2020/12/13 06:46:11;;;;;;;36.97;19.40;;;3.40;99.90;;;;;;6226075;28;20798;-62
2020/12/13 06:49:15;;;;;;;33.27;19.60;;;3.50;99.90;;;;;;6226085;28;20472;-62
2020/12/13 06:52:30;;;;;;;26.83;18.70;;;3.40;99.90;;;;;;6226061;28;20495;-62
2020/12/13 06:55:33;;;;;;;33.33;18.80;;;3.40;99.90;;;;;;6225921;28;20453;-62
2020/12/13 06:58:43;;;;;;;32.20;20.30;;;3.50;99.90;;;;;;6226019;28;20505;-62
2020/12/13 07:01:47;;;;;;;29.30;17.63;;;3.50;99.90;;;;;;6225619;28;20472;-62
2020/12/13 07:04:50;;;;;;;27.80;18.47;;;3.60;99.90;;;;;;6225445;28;20790;-62
2020/12/13 07:07:54;;;;;;;36.23;18.83;;;3.60;99.90;;;;;;6225971;28;20464;-62
2020/12/13 07:10:58;;;;;;;30.80;20.73;;;3.50;99.90;;;;;;6225822;28;20476;-62
2020/12/13 07:14:06;;;;;;;31.43;19.30;;;3.50;99.90;;;;;;6225360;28;20793;-62
2020/12/13 07:17:15;;;;;;;30.50;18.10;;;3.40;99.90;;;;;;6225238;28;20471;-63
2020/12/13 07:20:23;;;;;;;38.50;21.30;;;3.50;99.90;;;;;;6224950;28;20588;-66
2020/12/13 07:23:26;;;;;;;30.17;17.23;;;3.50;99.90;;;;;;6224127;28;20480;-65
2020/12/13 07:26:30;;;;;;;31.13;18.87;;;3.60;99.90;;;;;;6224837;28;20480;-63
2020/12/13 07:29:33;;;;;;;31.17;18.67;;;3.70;99.90;;;;;;6224642;28;20476;-64
2020/12/13 07:32:36;;;;;;;34.57;21.67;;;3.70;99.90;;;;;;6225337;28;20605;-64
2020/12/13 07:35:38;;;;;;;29.83;21.43;;;3.80;99.90;;;;;;6224785;28;20460;-64
2020/12/13 07:38:41;;;;;;;28.70;18.90;;;3.90;99.90;;;;;;6225484;28;20989;-62
2020/12/13 07:41:47;;;;;;;28.60;17.97;;;3.90;99.90;;;;;;6225127;28;20476;-63
2020/12/13 07:44:49;;;;;;;34.30;20.37;;;4.00;99.90;;;;;;6225283;28;20888;-63
2020/12/13 07:48:00;;;;;;;30.70;19.23;;;4.10;99.90;;;;;;6225053;28;20472;-62
2020/12/13 07:51:05;;;;;;;27.40;17.83;;;4.20;99.90;;;;;;6224881;28;20481;-62
2020/12/13 07:54:15;;;;;;;21.43;14.57;;;4.20;99.90;;;;;;6224859;28;20806;-62
2020/12/13 07:57:18;;;;;;;27.27;18.40;;;4.20;99.90;;;;;;6224818;28;20452;-62
2020/12/13 08:00:20;;;;;;;25.60;15.80;;;4.30;99.90;;;;;;6224682;28;20475;-63
2020/12/13 08:03:26;;;;;;;21.20;15.10;;;4.30;99.90;;;;;;6224747;28;20448;-63
2020/12/13 08:06:29;;;;;;;22.37;15.27;;;4.30;99.90;;;;;;6225195;28;20465;-64
2020/12/13 08:09:31;;;;;;;26.23;17.40;;;4.30;99.90;;;;;;6224844;28;20448;-63
2020/12/13 08:12:38;;;;;;;23.67;17.33;;;4.30;99.90;;;;;;6224771;28;20634;-63
2020/12/13 08:15:40;;;;;;;20.60;15.53;;;4.30;99.90;;;;;;6224864;28;20909;-62
2020/12/13 08:18:45;;;;;;;22.03;16.17;;;4.30;99.90;;;;;;6225271;28;20467;-63
2020/12/13 08:22:00;;;;;;;28.63;17.73;;;4.40;99.90;;;;;;6224704;28;20932;-60
2020/12/13 08:25:05;;;;;;;23.70;16.07;;;4.40;99.90;;;;;;6224913;28;20475;-61
2020/12/13 08:28:08;;;;;;;26.77;17.10;;;4.40;99.90;;;;;;6224796;28;20618;-62
2020/12/13 08:31:14;;;;;;;24.87;17.67;;;4.50;99.90;;;;;;6224540;28;20468;-62
2020/12/13 08:34:25;;;;;;;26.13;17.80;;;4.60;99.90;;;;;;6215977;28;20595;-62
2020/12/13 08:37:27;;;;;;;26.83;19.40;;;4.60;99.90;;;;;;6229581;28;20472;-61
2020/12/13 08:40:36;;;;;;;25.53;17.17;;;4.70;99.90;;;;;;6228941;28;20526;-61
2020/12/13 08:43:39;;;;;;;23.87;17.27;;;4.80;99.90;;;;;;6224608;28;20472;-61
2020/12/13 08:46:43;;;;;;;24.87;17.00;;;4.90;99.90;;;;;;6216197;28;20469;-62
2020/12/13 08:49:50;;;;;;;23.23;16.37;;;5.10;99.90;;;;;;6222689;28;20471;-62
2020/12/13 08:52:52;;;;;;;22.10;15.37;;;5.30;99.90;;;;;;6228837;28;20468;-61
2020/12/13 08:56:05;;;;;;;21.17;16.27;;;5.40;99.90;;;;;;6228074;28;20820;-62
2020/12/13 08:59:07;;;;;;;22.27;14.63;;;5.30;99.90;;;;;;6226457;28;20473;-61
2020/12/13 09:02:18;;;;;;;23.30;15.00;;;5.00;99.90;;;;;;6226355;28;20547;-60
2020/12/13 09:05:26;;;;;;;18.50;13.57;;;5.10;99.90;;;;;;6226482;28;20487;-61
2020/12/13 09:08:28;;;;;;;22.23;15.73;;;5.10;99.90;;;;;;6226120;28;20967;-60
2020/12/13 09:11:32;;;;;;;20.33;14.47;;;5.10;99.90;;;;;;6226097;28;20472;-61
2020/12/13 09:14:35;;;;;;;22.67;16.10;;;5.00;99.90;;;;;;6226959;28;20567;-61
2020/12/13 09:17:37;;;;;;;22.50;15.90;;;4.90;99.90;;;;;;6227747;28;20805;-62
2020/12/13 09:20:41;;;;;;;22.80;16.30;;;4.80;99.90;;;;;;6227837;28;20499;-62
2020/12/13 09:23:45;;;;;;;25.43;16.97;;;4.80;99.90;;;;;;6224057;28;20456;-61
2020/12/13 09:27:07;;;;;;;81.57;34.63;;;4.80;99.90;;;;;;6217065;28;20501;-60
2020/12/13 09:30:10;;;;;;;52.63;24.60;;;4.80;99.90;;;;;;6213283;28;20479;-61
2020/12/13 09:33:15;;;;;;;55.03;26.43;;;4.80;99.90;;;;;;6213650;28;20473;-62
2020/12/13 09:36:18;;;;;;;26.63;17.33;;;4.90;99.90;;;;;;6217791;28;21070;-61
2020/12/13 09:39:21;;;;;;;26.30;17.50;;;5.10;99.90;;;;;;6220450;28;20451;-62
2020/12/13 09:42:23;;;;;;;23.23;15.10;;;5.30;99.90;;;;;;6214760;28;20474;-62
2020/12/13 09:45:26;;;;;;;23.07;15.53;;;5.30;99.90;;;;;;6211739;28;20433;-62
2020/12/13 09:48:28;;;;;;;20.10;14.47;;;5.30;99.90;;;;;;6214205;28;20458;-61
2020/12/13 09:51:31;;;;;;;19.43;14.60;;;5.30;99.90;;;;;;6215624;28;20458;-61
2020/12/13 09:54:34;;;;;;;23.57;15.97;;;5.30;99.90;;;;;;6227409;28;20448;-61
2020/12/13 09:57:37;;;;;;;25.73;15.93;;;5.40;99.90;;;;;;6227710;28;20483;-62
2020/12/13 10:00:39;;;;;;;23.77;15.53;;;5.40;99.90;;;;;;6226995;28;20998;-61
2020/12/13 10:03:45;;;;;;;25.20;16.03;;;5.30;99.90;;;;;;6226676;28;20480;-62
2020/12/13 10:10:11;;;;;;;29.03;18.87;;;5.20;99.90;;;;;;6205159;28;20483;-61
2020/12/13 10:13:13;;;;;;;26.30;17.30;;;5.10;99.90;;;;;;6215317;28;20491;-61
2020/12/13 10:16:16;;;;;;;29.40;18.93;;;5.00;99.90;;;;;;6210549;28;20465;-62
2020/12/13 10:19:18;;;;;;;25.57;20.43;;;5.00;99.90;;;;;;6204290;28;20622;-62
2020/12/13 10:22:21;;;;;;;27.43;20.30;;;4.90;99.90;;;;;;6210361;28;20796;-61
2020/12/13 10:25:24;;;;;;;30.43;19.83;;;5.00;99.90;;;;;;6223705;28;20483;-61
2020/12/13 10:28:30;;;;;;;26.27;19.03;;;5.10;99.90;;;;;;6214264;28;20476;-61
2020/12/13 10:31:33;;;;;;;32.10;19.83;;;5.20;99.90;;;;;;6213010;28;20526;-61
2020/12/13 10:34:36;;;;;;;22.27;16.30;;;5.20;99.90;;;;;;6213103;28;20491;-62
2020/12/13 10:37:39;;;;;;;25.00;18.23;;;5.40;99.90;;;;;;6211043;28;21043;-61
2020/12/13 10:40:41;;;;;;;27.17;19.00;;;5.50;99.90;;;;;;6209107;28;20540;-61
2020/12/13 10:43:43;;;;;;;29.60;20.77;;;5.50;99.90;;;;;;6205624;28;20494;-60
2020/12/13 10:46:46;;;;;;;27.30;18.13;;;5.60;99.90;;;;;;6216211;28;20477;-60
2020/12/13 10:49:48;;;;;;;27.40;19.63;;;5.70;99.90;;;;;;6211969;28;20879;-61
2020/12/13 10:52:53;;;;;;;31.23;21.67;;;5.70;99.90;;;;;;6212503;28;20477;-61
2020/12/13 10:55:55;;;;;;;29.60;20.97;;;5.50;99.90;;;;;;6226091;28;20479;-60
2020/12/13 10:58:58;;;;;;;30.03;19.47;;;5.50;99.90;;;;;;6225294;28;20487;-61
2020/12/13 11:02:00;;;;;;;31.40;18.80;;;5.60;99.90;;;;;;6225667;28;20502;-62
2020/12/13 11:05:03;;;;;;;29.20;21.47;;;5.60;99.90;;;;;;6225505;28;20475;-62
2020/12/13 11:08:06;;;;;;;32.07;21.37;;;5.70;99.90;;;;;;6218946;28;20551;-61
2020/12/13 11:11:08;;;;;;;26.80;20.73;;;5.60;99.90;;;;;;6210898;28;20477;-62
2020/12/13 11:14:10;;;;;;;29.67;21.10;;;5.80;99.90;;;;;;6212592;28;20486;-62
2020/12/13 11:17:12;;;;;;;30.20;20.17;;;5.90;99.90;;;;;;6211004;28;20476;-62
2020/12/13 11:20:14;;;;;;;26.37;18.20;;;6.00;99.90;;;;;;6211551;28;20472;-62
2020/12/13 11:23:20;;;;;;;30.80;20.83;;;6.60;99.90;;;;;;6213099;28;20971;-63
2020/12/13 11:26:22;;;;;;;29.40;19.50;;;7.20;99.90;;;;;;6219921;28;20975;-62
2020/12/13 11:29:25;;;;;;;23.37;17.90;;;7.70;99.90;;;;;;6225395;28;20499;-63
2020/12/13 11:32:27;;;;;;;28.97;20.00;;;8.70;99.90;;;;;;6225513;28;20491;-63
2020/12/13 11:35:29;;;;;;;26.47;17.80;;;9.50;98.70;;;;;;6225075;28;20475;-63
2020/12/13 11:38:35;;;;;;;28.00;18.50;;;10.70;96.40;;;;;;6225686;28;20974;-63
2020/12/13 11:41:37;;;;;;;27.10;20.00;;;11.60;94.70;;;;;;6195545;28;20501;-63
2020/12/13 11:44:40;;;;;;;23.00;17.13;;;12.80;92.90;;;;;;6180420;28;20492;-63
2020/12/13 11:47:42;;;;;;;22.13;18.23;;;14.70;90.10;;;;;;6193812;28;20481;-63
2020/12/13 11:50:50;;;;;;;21.73;18.40;;;15.60;81.00;;;;;;6197850;28;20825;-63
2020/12/13 11:53:55;;;;;;;19.37;16.30;;;16.10;74.90;;;;;;6198407;28;21069;-62
2020/12/13 11:56:57;;;;;;;21.07;17.80;;;16.40;70.60;;;;;;6200747;28;20461;-63
2020/12/13 12:00:00;;;;;;;25.20;19.37;;;16.10;68.80;;;;;;6200568;28;20995;-62
2020/12/13 12:03:02;;;;;;;22.37;19.40;;;15.30;69.30;;;;;;6207540;28;20465;-64
2020/12/13 12:06:08;;;;;;;23.00;19.37;;;14.40;70.10;;;;;;6198389;28;20499;-65
2020/12/13 12:09:12;;;;;;;24.67;19.90;;;13.50;73.60;;;;;;6200407;28;21006;-63
2020/12/13 12:12:14;;;;;;;28.00;20.53;;;12.70;77.30;;;;;;6202964;28;20472;-66
2020/12/13 12:15:16;;;;;;;24.00;19.13;;;12.00;79.20;;;;;;6204950;28;20472;-59
2020/12/13 12:18:19;;;;;;;24.57;19.47;;;10.80;84.30;;;;;;6213394;28;20503;-62
2020/12/13 12:21:23;;;;;;;24.80;19.63;;;10.30;87.20;;;;;;6204959;28;20475;-62
2020/12/13 12:24:28;;;;;;;28.67;19.73;;;9.80;90.60;;;;;;6204767;28;20449;-63
2020/12/13 12:27:32;;;;;;;22.80;19.77;;;9.40;91.50;;;;;;6204691;28;20491;-61
2020/12/13 12:30:35;;;;;;;25.10;20.97;;;9.00;93.10;;;;;;6204309;28;20469;-63
2020/12/13 12:33:37;;;;;;;28.83;21.20;;;8.70;94.40;;;;;;6204303;28;21493;-64
2020/12/13 12:36:39;;;;;;;29.70;21.10;;;8.50;95.50;;;;;;6204755;28;20472;-61
2020/12/13 12:39:42;;;;;;;30.93;22.60;;;8.30;95.50;;;;;;6204131;28;20475;-63
2020/12/13 12:42:44;;;;;;;35.50;23.10;;;8.10;96.60;;;;;;6204510;28;20468;-64
2020/12/13 12:45:46;;;;;;;31.40;20.90;;;7.80;97.60;;;;;;6217572;28;20460;-63
2020/12/13 12:48:49;;;;;;;31.47;21.27;;;7.70;97.90;;;;;;6221273;28;20543;-61
2020/12/13 12:51:51;;;;;;;35.30;21.83;;;7.60;98.60;;;;;;6219197;28;20479;-62
2020/12/13 12:54:54;;;;;;;32.50;21.43;;;7.40;99.30;;;;;;6228528;28;20467;-62
2020/12/13 12:57:57;;;;;;;31.20;22.00;;;7.30;99.90;;;;;;6228117;28;20483;-61
2020/12/13 13:01:00;;;;;;;33.10;22.90;;;7.10;99.90;;;;;;6228518;28;20567;-60
2020/12/13 13:04:05;;;;;;;36.87;23.10;;;6.90;99.90;;;;;;6227883;28;20547;-60
2020/12/13 13:07:16;;;;;;;31.87;21.67;;;6.90;99.90;;;;;;6228106;28;20475;-61
2020/12/13 13:10:21;;;;;;;31.80;23.13;;;7.00;99.90;;;;;;6228008;28;20557;-61
2020/12/13 13:13:24;;;;;;;30.20;23.17;;;7.00;99.90;;;;;;6227157;28;20472;-60
2020/12/13 13:16:27;;;;;;;29.80;21.93;;;7.00;99.90;;;;;;6225288;28;20469;-60
2020/12/13 13:19:29;;;;;;;34.90;24.60;;;7.00;99.90;;;;;;6203224;28;20556;-61
2020/12/13 13:22:31;;;;;;;32.40;23.87;;;7.20;99.90;;;;;;6203040;28;20484;-61
2020/12/13 13:25:35;;;;;;;37.73;26.30;;;7.50;99.90;;;;;;6203628;28;20465;-61
2020/12/13 13:28:39;;;;;;;33.10;24.00;;;7.70;99.90;;;;;;6203336;28;20480;-61
2020/12/13 13:31:41;;;;;;;35.57;25.00;;;7.60;99.90;;;;;;6205892;28;20491;-63
2020/12/13 13:34:43;;;;;;;32.20;23.67;;;7.50;99.90;;;;;;6203216;28;20695;-61
2020/12/13 13:37:45;;;;;;;34.70;23.67;;;7.40;99.90;;;;;;6200719;28;20487;-61
2020/12/13 13:40:48;;;;;;;35.13;22.40;;;7.40;99.90;;;;;;6200313;28;20973;-61
2020/12/13 13:43:53;;;;;;;33.20;23.37;;;7.30;99.90;;;;;;6201751;28;20465;-61
2020/12/13 13:47:01;;;;;;;35.10;23.20;;;7.30;99.90;;;;;;6202041;28;20507;-61
2020/12/13 13:50:04;;;;;;;34.00;23.10;;;7.20;99.90;;;;;;6201709;28;20481;-61
2020/12/13 13:53:06;;;;;;;31.80;22.90;;;7.10;99.90;;;;;;6202806;28;20477;-61
2020/12/13 13:56:17;;;;;;;31.50;23.23;;;7.00;99.90;;;;;;6198926;28;20922;-61
2020/12/13 13:59:21;;;;;;;31.53;22.07;;;7.00;99.90;;;;;;6202815;28;20488;-61
2020/12/13 14:02:23;;;;;;;34.23;22.77;;;6.80;99.90;;;;;;6201605;28;20487;-61
2020/12/13 14:05:27;;;;;;;30.17;22.80;;;6.70;99.90;;;;;;6202281;28;20488;-60
2020/12/13 14:11:55;;;;;;;35.63;22.13;;;6.40;99.90;;;;;;6187563;28;20500;-61
2020/12/13 14:14:59;;;;;;;32.40;21.90;;;6.30;99.90;;;;;;6201924;28;20488;-61
2020/12/13 14:18:02;;;;;;;36.63;23.00;;;6.20;99.90;;;;;;6202042;28;20473;-61
2020/12/13 14:21:04;;;;;;;34.20;23.37;;;6.10;99.90;;;;;;6201782;28;20476;-61
2020/12/13 14:24:06;;;;;;;33.53;22.93;;;6.00;99.90;;;;;;6202046;28;20491;-61
2020/12/13 14:27:09;;;;;;;33.57;22.93;;;6.00;99.90;;;;;;6202176;28;20489;-62
2020/12/13 14:30:12;;;;;;;37.03;23.37;;;6.00;99.90;;;;;;6201566;28;20950;-63
2020/12/13 14:33:15;;;;;;;35.20;24.50;;;5.90;99.90;;;;;;6202208;28;21002;-60
2020/12/13 14:36:17;;;;;;;35.07;22.93;;;5.80;99.90;;;;;;6201835;28;21027;-62
2020/12/13 14:39:20;;;;;;;36.63;24.20;;;5.70;99.90;;;;;;6202198;28;20472;-61
2020/12/13 14:42:23;;;;;;;37.10;23.10;;;5.70;99.90;;;;;;6201676;28;20504;-61
2020/12/13 14:45:25;;;;;;;36.87;23.20;;;5.70;99.90;;;;;;6202017;28;20576;-61
2020/12/13 14:48:27;;;;;;;42.33;25.30;;;5.80;99.90;;;;;;6201389;28;20484;-61
2020/12/13 14:51:31;;;;;;;36.17;24.40;;;5.80;99.90;;;;;;6201812;28;20497;-61
2020/12/13 14:54:34;;;;;;;35.63;23.63;;;5.80;99.90;;;;;;6201408;28;20463;-61
2020/12/13 14:57:37;;;;;;;35.40;23.53;;;5.70;99.90;;;;;;6201382;28;20456;-61
2020/12/13 15:00:39;;;;;;;38.93;26.13;;;5.80;99.90;;;;;;6192342;28;20932;-61
2020/12/13 15:03:41;;;;;;;36.23;24.33;;;5.80;99.90;;;;;;6201591;28;20465;-61
2020/12/13 15:06:43;;;;;;;39.93;25.00;;;5.70;99.90;;;;;;6201233;28;20461;-61
2020/12/13 15:09:46;;;;;;;45.50;25.20;;;5.70;99.90;;;;;;6201487;28;20465;-61
2020/12/13 15:12:49;;;;;;;35.83;24.07;;;5.60;99.90;;;;;;6201046;28;20980;-60
2020/12/13 15:15:58;;;;;;;41.33;25.60;;;5.50;99.90;;;;;;6201343;28;20465;-60
2020/12/13 15:19:01;;;;;;;39.20;24.00;;;5.40;99.90;;;;;;6201319;28;20524;-60
2020/12/13 15:22:04;;;;;;;42.90;25.30;;;5.40;99.90;;;;;;6201106;28;20483;-61
2020/12/13 15:25:06;;;;;;;35.70;24.10;;;5.50;99.90;;;;;;6200983;28;20988;-61
2020/12/13 15:28:09;;;;;;;41.90;25.87;;;5.50;99.90;;;;;;6201167;28;20516;-61
2020/12/13 15:31:13;;;;;;;42.23;24.70;;;5.50;99.90;;;;;;6200724;28;20822;-61
2020/12/13 15:34:21;;;;;;;39.07;25.60;;;5.50;99.90;;;;;;6200718;28;20856;-61
2020/12/13 15:37:23;;;;;;;35.50;24.37;;;5.40;99.90;;;;;;6201206;28;20477;-61
2020/12/13 15:40:26;;;;;;;45.27;26.13;;;5.40;99.90;;;;;;6200884;28;20473;-61
2020/12/13 15:43:29;;;;;;;37.20;26.03;;;5.40;99.90;;;;;;6201778;28;20468;-61
2020/12/13 15:46:32;;;;;;;39.77;26.60;;;5.30;99.90;;;;;;6205701;28;20987;-61
2020/12/13 15:49:34;;;;;;;36.17;24.27;;;5.30;99.90;;;;;;6205726;28;20515;-62